Hauptseite
METAR-TAF:

METAR-TAF

Flughäfen :

Lahr, Deutschland

Flughafen Lahr

Breite: 48-22-09N, Länge: 007-49-40E, Höhe: 156 m

Beobachtung

Neuester Wetterbericht von vor 1 Stunde und 33 Minuten, um 18:50 UTC
Wind 2 kt aus Nord/Nordwest
Temperatur 2°C
Luftfeuchtigkeit 100%
Luftdruck 1027 hPa
Sichtweite 10 km oder mehr
Durchbrochene Bewölkung in der Höhe von 900 ft

METAR: EDTL 181850Z 33002KT 9999 BKN009 02/02 Q1027

Zeit: 21:23 (20:23 UTC)

Prognose

Neuester Wetterbericht von vor 3 Stunden und 23 Minuten, um 17:00 UTC
Gültige Prognose vom 18 um 18 UTC bis 18 um 24 UTC
Wind 3 kt aus unterschiedlichen Richtungen
Sichtweite: 9000 m
Durchbrochene Bewölkung in der Höhe von 1000 ft
Zeitweise
vom 18 um 18 UTC bis 18 um 24 UTC
Durchbrochene Bewölkung in der Höhe von 700 ft

TAF: EDTL 181700Z 1818/1824 VRB03KT 9000 BKN010 TEMPO 1818/1824 BKN007

Wetterbeobachtungen und Prognosen von mehr als 4000 Flughäfen (METAR und TAF Bericht).

Die verfügbaren Stationen werden durch gelbe und rote Markierungen auf der Karte dargestellt.

Führen Sie die Maus auf sie, um den Namen der Station zu sehen.

Darauf klicken, um die Beobachtung von Wetterbeobachtungen und Prognosen zu sehen.

Um die Karte zu ändern : klicken Sie auf den grünen Tasten mit einem schwarzen Kreuz Zum Vergrößern, auf den grünen Button mit einem Gedankenstrich zu verkleinern, oder auf die grünen Pfeile für benachbarte Karten.


METAR-TAF: